San Perlita, Texas
Current Conditions -  °F | °C
As of 2:52 AM on Wednesday 22 Oct 2014 (Local Time) from KHRL Reporting Station
Clear Clear  
Wind Chill: 72°   Ceiling: Unl
Heat Index: 72°   Visibility: 10mi
Dew Point: 70°   Wind: 7mph
Humidity: 93%   Direction: 50°NE
Pressure: 29.93"   Gusts: NA
Location:  26.5°N, 97.64°W
Report Text: KHRL 220752Z AUTO 05006KT 10SM CLR 22/21 A2993 RMK AO2 SLP135 P0001 T02220211
Loading
Personal Weather Stations






























Interactive Weather Map New forecast layout! Learn more

10-Day Weather Forecast

Advertisements
Track Severe Weather on mobile